createdAt,value
2023-05-12T00:00:13.154Z,64.80
2023-05-12T00:01:15.409Z,65.10
2023-05-12T00:02:17.772Z,65.30
2023-05-12T00:03:19.958Z,65.60
2023-05-12T00:04:22.162Z,65.80
2023-05-12T00:05:26.085Z,65.90
2023-05-12T00:06:28.265Z,66.00
2023-05-12T00:07:30.385Z,66.00
2023-05-12T00:08:32.548Z,65.90
2023-05-12T00:09:34.701Z,66.10
2023-05-12T00:10:36.903Z,66.20
2023-05-12T00:11:39.126Z,66.30
2023-05-12T00:12:41.420Z,66.30
2023-05-12T00:13:44.080Z,66.40
2023-05-12T00:14:46.274Z,66.60
2023-05-12T00:15:48.356Z,66.60
2023-05-12T00:16:52.106Z,66.80
2023-05-12T00:17:54.501Z,67.00
2023-05-12T00:18:56.672Z,67.00
2023-05-12T00:19:58.849Z,67.10
2023-05-12T00:21:02.418Z,67.10
2023-05-12T00:22:04.852Z,67.50
2023-05-12T00:23:07.365Z,67.70
2023-05-12T00:24:09.665Z,67.90
2023-05-12T00:25:11.838Z,68.00
2023-05-12T00:26:14.022Z,68.00
2023-05-12T00:27:16.137Z,67.90
2023-05-12T00:28:18.969Z,67.90
2023-05-12T00:29:21.083Z,68.10
2023-05-12T00:30:23.304Z,68.10
2023-05-12T00:31:25.668Z,68.10
2023-05-12T00:32:27.932Z,68.10
2023-05-12T00:33:30.271Z,68.10
2023-05-12T00:34:32.417Z,68.00
2023-05-12T00:35:34.543Z,68.00
2023-05-12T00:36:38.105Z,68.10
2023-05-12T00:37:40.201Z,68.20
2023-05-12T00:38:42.365Z,68.20
2023-05-12T00:39:44.502Z,68.30
2023-05-12T00:40:46.619Z,68.20
2023-05-12T00:41:50.193Z,68.20
2023-05-12T00:42:52.331Z,68.30
2023-05-12T00:43:54.450Z,68.50
2023-05-12T00:44:56.552Z,68.70
2023-05-12T00:45:59.116Z,68.90
2023-05-12T00:47:01.336Z,69.30
2023-05-12T00:48:05.167Z,69.60
2023-05-12T00:49:07.951Z,70.00
2023-05-12T00:50:10.542Z,70.20
2023-05-12T00:51:13.411Z,70.40
2023-05-12T00:52:17.030Z,70.60
2023-05-12T00:53:19.182Z,70.70
2023-05-12T00:54:21.462Z,70.70
2023-05-12T00:55:23.590Z,70.90
2023-05-12T00:56:25.948Z,71.20
2023-05-12T00:57:28.263Z,71.50
2023-05-12T00:58:30.550Z,71.80
2023-05-12T00:59:32.811Z,72.10
2023-05-12T01:00:34.906Z,72.50
2023-05-12T01:01:37.826Z,72.80
2023-05-12T01:02:40.535Z,72.90
2023-05-12T01:03:43.358Z,72.90
2023-05-12T01:04:45.655Z,73.00
2023-05-12T01:05:52.980Z,73.20
2023-05-12T01:06:58.250Z,73.20
2023-05-12T01:08:03.292Z,73.10
2023-05-12T01:09:05.903Z,73.20
2023-05-12T01:10:18.747Z,73.30
2023-05-12T01:11:22.790Z,73.40
2023-05-12T01:12:26.172Z,73.50
2023-05-12T01:13:29.029Z,73.80
2023-05-12T01:14:31.303Z,74.00
2023-05-12T01:15:33.852Z,74.30
2023-05-12T01:16:43.121Z,74.80
2023-05-12T01:17:50.890Z,75.20
2023-05-12T01:18:56.092Z,75.70
2023-05-12T01:20:00.781Z,76.30
2023-05-12T01:21:04.336Z,76.70
2023-05-12T01:22:07.119Z,77.10
2023-05-12T01:23:11.427Z,77.40
2023-05-12T01:24:16.366Z,77.70
2023-05-12T01:25:22.476Z,77.80
2023-05-12T01:26:26.524Z,77.80
2023-05-12T01:27:30.355Z,77.60
2023-05-12T01:28:32.978Z,77.80
2023-05-12T01:29:36.020Z,78.10
2023-05-12T01:30:41.788Z,78.10
2023-05-12T01:32:54.684Z,78.30
2023-05-12T01:33:56.884Z,78.30
2023-05-12T01:34:59.044Z,78.50
2023-05-12T01:36:01.235Z,78.60
2023-05-12T01:37:03.482Z,78.70
2023-05-12T01:38:05.610Z,78.80
2023-05-12T01:39:07.732Z,78.90
2023-05-12T01:40:10.358Z,78.90
2023-05-12T01:41:12.495Z,78.90
2023-05-12T01:42:16.032Z,78.90
2023-05-12T01:43:18.950Z,79.20
2023-05-12T01:44:22.437Z,79.30
2023-05-12T01:45:24.565Z,79.40
2023-05-12T01:46:26.726Z,79.50
2023-05-12T01:47:28.887Z,79.60
2023-05-12T01:48:31.196Z,79.80
2023-05-12T01:49:33.327Z,79.90
2023-05-12T01:50:35.975Z,80.10
2023-05-12T01:51:38.125Z,80.20
2023-05-12T01:52:40.638Z,80.50
2023-05-12T01:53:42.714Z,81.10
2023-05-12T01:54:44.922Z,81.60
2023-05-12T01:55:47.105Z,82.20
2023-05-12T01:56:49.287Z,82.50
2023-05-12T01:57:52.770Z,82.70
2023-05-12T01:58:55.212Z,83.00
2023-05-12T01:59:57.490Z,83.20
2023-05-12T02:00:59.969Z,83.30
2023-05-12T02:02:02.137Z,83.30
2023-05-12T02:03:04.384Z,83.50
2023-05-12T02:04:08.919Z,83.90
2023-05-12T02:05:11.632Z,84.30
2023-05-12T02:06:13.879Z,84.60
2023-05-12T02:07:15.993Z,85.00
2023-05-12T02:08:18.142Z,85.40
2023-05-12T02:09:22.574Z,85.90
2023-05-12T02:10:24.724Z,86.30
2023-05-12T02:11:26.869Z,86.70
2023-05-12T02:12:28.993Z,87.10
2023-05-12T02:13:32.575Z,87.30
2023-05-12T02:14:34.732Z,87.50
2023-05-12T02:15:36.875Z,87.80
2023-05-12T02:16:39.101Z,88.10
2023-05-12T02:17:41.299Z,88.20
2023-05-12T02:18:43.480Z,88.30
2023-05-12T02:19:45.593Z,88.40
2023-05-12T02:20:47.676Z,88.70
2023-05-12T02:21:49.797Z,88.80
2023-05-12T02:22:51.882Z,88.80
2023-05-12T02:23:54.062Z,88.90
2023-05-12T02:24:56.136Z,89.20
2023-05-12T02:25:58.273Z,89.30
2023-05-12T02:27:00.507Z,89.50
2023-05-12T02:28:02.728Z,89.70
2023-05-12T02:29:06.211Z,89.80
2023-05-12T02:30:09.228Z,89.90
2023-05-12T02:31:11.330Z,90.00
2023-05-12T02:32:13.577Z,90.00
2023-05-12T02:33:15.983Z,90.00
2023-05-12T02:34:18.115Z,90.10
2023-05-12T02:35:21.445Z,90.00
2023-05-12T02:36:23.585Z,90.00
2023-05-12T02:37:25.791Z,90.00
2023-05-12T02:38:28.456Z,90.00
2023-05-12T02:39:30.649Z,90.10
2023-05-12T02:40:32.867Z,90.10
2023-05-12T02:41:34.979Z,90.30
2023-05-12T02:42:38.558Z,90.30
2023-05-12T02:43:40.760Z,90.30
2023-05-12T02:44:44.272Z,90.30
2023-05-12T02:45:46.543Z,90.20
2023-05-12T02:46:48.646Z,90.30
2023-05-12T02:47:51.050Z,90.40
2023-05-12T02:48:53.508Z,90.60
2023-05-12T02:49:56.951Z,90.80
2023-05-12T02:50:59.166Z,91.00
2023-05-12T02:52:01.325Z,91.20
2023-05-12T02:53:03.532Z,91.30
2023-05-12T02:54:06.331Z,91.60
2023-05-12T02:55:08.999Z,91.80
2023-05-12T02:56:11.171Z,91.80
2023-05-12T02:57:13.299Z,91.90
2023-05-12T02:58:15.827Z,91.90
2023-05-12T02:59:18.548Z,91.90
2023-05-12T03:00:22.255Z,91.90
2023-05-12T03:01:24.439Z,91.90
2023-05-12T03:02:26.735Z,91.90
2023-05-12T03:03:29.306Z,91.90
2023-05-12T03:04:33.161Z,91.90
2023-05-12T03:05:35.305Z,92.00
2023-05-12T03:06:37.448Z,92.00
2023-05-12T03:07:39.690Z,92.00
2023-05-12T03:08:41.874Z,92.10
2023-05-12T03:09:44.150Z,92.10
2023-05-12T03:10:46.334Z,92.00
2023-05-12T03:11:48.426Z,91.90
2023-05-12T03:12:50.632Z,92.10
2023-05-12T03:13:52.769Z,91.80
2023-05-12T03:14:55.097Z,91.80
2023-05-12T03:16:01.656Z,91.80
2023-05-12T03:17:04.369Z,91.90
2023-05-12T03:18:06.807Z,91.90
2023-05-12T03:19:09.253Z,91.90
2023-05-12T03:20:12.297Z,91.90
2023-05-12T03:21:14.452Z,91.90
2023-05-12T03:22:16.819Z,91.90
2023-05-12T03:23:18.934Z,91.80
2023-05-12T03:24:21.205Z,91.80
2023-05-12T03:25:23.447Z,91.80
2023-05-12T03:26:25.615Z,91.80
2023-05-12T03:27:27.759Z,91.90
2023-05-12T03:28:29.901Z,91.80
2023-05-12T03:29:32.202Z,91.70
2023-05-12T03:30:34.304Z,91.70
2023-05-12T03:31:37.970Z,91.70
2023-05-12T03:32:40.920Z,91.70
2023-05-12T03:33:43.061Z,91.60
2023-05-12T03:34:45.158Z,91.50
2023-05-12T03:35:47.793Z,91.50
2023-05-12T03:36:49.932Z,91.40
2023-05-12T03:37:51.999Z,91.30
2023-05-12T03:38:54.203Z,91.20
2023-05-12T03:39:56.412Z,91.20
2023-05-12T03:41:04.386Z,91.20
2023-05-12T03:42:07.133Z,91.30
2023-05-12T03:43:09.274Z,91.30
2023-05-12T03:44:12.403Z,91.20
2023-05-12T03:45:14.594Z,91.20
2023-05-12T03:46:16.906Z,91.20
2023-05-12T03:47:20.677Z,91.20
2023-05-12T03:48:22.965Z,91.20
2023-05-12T03:49:25.098Z,91.40
2023-05-12T03:50:27.223Z,91.10
2023-05-12T03:51:29.447Z,91.10
2023-05-12T03:52:31.609Z,91.10
2023-05-12T03:53:33.777Z,91.00
2023-05-12T03:54:37.823Z,90.90
2023-05-12T03:55:41.689Z,90.90
2023-05-12T03:56:43.770Z,90.90
2023-05-12T03:57:47.799Z,90.90
2023-05-12T03:58:49.940Z,91.00
2023-05-12T03:59:52.084Z,91.00
2023-05-12T04:00:57.133Z,91.00
2023-05-12T04:01:59.346Z,91.00
2023-05-12T04:03:02.975Z,91.00
2023-05-12T04:04:05.481Z,91.00
2023-05-12T04:05:10.156Z,91.00
2023-05-12T04:06:12.391Z,91.10
2023-05-12T04:07:14.646Z,91.10
2023-05-12T04:08:16.851Z,91.00
2023-05-12T04:09:20.132Z,91.00
2023-05-12T04:10:22.449Z,91.00
2023-05-12T04:11:24.686Z,90.90
2023-05-12T04:12:26.807Z,90.80
2023-05-12T04:13:31.144Z,90.80
2023-05-12T04:14:42.416Z,90.80
2023-05-12T04:15:45.514Z,90.80
2023-05-12T04:16:48.521Z,90.70
2023-05-12T04:17:51.172Z,90.80
2023-05-12T04:18:54.971Z,90.80
2023-05-12T04:19:57.157Z,90.80
2023-05-12T04:20:59.503Z,90.80
2023-05-12T04:22:01.761Z,90.70
2023-05-12T04:23:03.918Z,90.60
2023-05-12T04:24:06.357Z,90.50
2023-05-12T04:25:10.039Z,90.40
2023-05-12T04:26:12.187Z,90.30
2023-05-12T04:27:14.926Z,90.10
2023-05-12T04:28:17.091Z,90.00
2023-05-12T04:29:19.305Z,89.90
2023-05-12T04:30:22.124Z,89.70
2023-05-12T04:31:24.349Z,89.30
2023-05-12T04:32:26.528Z,89.00
2023-05-12T04:33:28.681Z,88.70
2023-05-12T04:34:32.686Z,88.10
2023-05-12T04:35:35.885Z,87.60
2023-05-12T04:36:38.091Z,87.30
2023-05-12T04:37:40.486Z,86.90
2023-05-12T04:38:42.953Z,86.30
2023-05-12T04:39:45.053Z,86.00
2023-05-12T04:40:47.226Z,85.70
2023-05-12T04:41:49.997Z,85.30
2023-05-12T04:42:53.225Z,85.00
2023-05-12T04:44:10.056Z,84.70
2023-05-12T04:45:12.605Z,84.60
2023-05-12T04:46:14.768Z,84.60
2023-05-12T04:47:16.912Z,84.60
2023-05-12T04:48:19.216Z,84.40
2023-05-12T04:49:21.388Z,84.20
2023-05-12T04:50:25.116Z,84.20
2023-05-12T04:51:27.241Z,84.20
2023-05-12T04:52:29.411Z,84.20
2023-05-12T04:53:34.781Z,84.00
2023-05-12T04:54:37.080Z,83.60
2023-05-12T04:55:39.212Z,83.00
2023-05-12T04:56:41.932Z,82.50
2023-05-12T04:57:44.331Z,81.80
2023-05-12T04:58:46.986Z,81.40
2023-05-12T04:59:49.166Z,81.00
2023-05-12T05:00:54.308Z,80.60
2023-05-12T05:01:56.489Z,80.30
2023-05-12T05:02:59.140Z,80.30
2023-05-12T05:04:01.383Z,79.90
2023-05-12T05:05:03.725Z,79.70
2023-05-12T05:06:07.711Z,79.40
2023-05-12T05:07:10.012Z,78.90
2023-05-12T05:08:12.387Z,78.40
2023-05-12T05:09:14.611Z,77.90
2023-05-12T05:10:16.850Z,77.70
2023-05-12T05:11:18.972Z,77.60
2023-05-12T05:12:21.056Z,77.30
2023-05-12T05:13:26.240Z,76.70
2023-05-12T05:14:28.436Z,76.10
2023-05-12T05:15:30.959Z,75.50
2023-05-12T05:16:33.249Z,75.40
2023-05-12T05:17:35.705Z,73.90
2023-05-12T05:18:37.996Z,72.90
2023-05-12T05:19:53.552Z,72.30
2023-05-12T05:20:59.081Z,71.90
2023-05-12T05:22:03.420Z,71.60
2023-05-12T05:23:05.880Z,71.20
2023-05-12T05:24:09.229Z,70.50
2023-05-12T05:25:11.782Z,69.60
2023-05-12T05:26:14.196Z,69.00
2023-05-12T05:27:16.942Z,67.60
2023-05-12T05:28:19.412Z,65.80
2023-05-12T05:29:21.515Z,64.60
2023-05-12T05:30:23.673Z,63.80
2023-05-12T05:31:28.722Z,63.00
2023-05-12T05:32:31.250Z,62.40
2023-05-12T05:33:33.536Z,62.00
2023-05-12T05:34:35.783Z,61.90
2023-05-12T05:35:38.011Z,61.90
2023-05-12T05:36:41.169Z,61.30
2023-05-12T05:37:44.743Z,60.20
2023-05-12T05:38:46.893Z,59.50
2023-05-12T05:39:48.989Z,59.00
2023-05-12T05:40:54.202Z,58.60
2023-05-12T05:41:56.565Z,58.30
2023-05-12T05:42:58.821Z,58.10
2023-05-12T05:44:01.618Z,57.90
2023-05-12T05:45:04.216Z,57.40
2023-05-12T05:46:06.867Z,56.60
2023-05-12T05:47:09.130Z,55.80
2023-05-12T05:48:11.357Z,55.50
2023-05-12T05:49:13.738Z,54.80
2023-05-12T05:50:16.133Z,54.00
2023-05-12T05:51:18.554Z,53.30
2023-05-12T05:52:20.844Z,53.10
2023-05-12T05:53:24.385Z,52.50
2023-05-12T05:54:26.601Z,51.70
2023-05-12T05:55:28.805Z,51.00
2023-05-12T05:56:32.770Z,50.50
2023-05-12T05:57:34.955Z,50.10
2023-05-12T05:58:37.688Z,49.60
2023-05-12T05:59:39.800Z,49.10
2023-05-12T06:00:42.636Z,49.00
2023-05-12T06:01:45.616Z,49.10
2023-05-12T06:02:47.939Z,49.00
2023-05-12T06:03:50.193Z,48.40
2023-05-12T06:04:52.602Z,48.10
2023-05-12T06:05:54.783Z,47.90
2023-05-12T06:06:56.991Z,47.30
2023-05-12T06:07:59.478Z,46.70
2023-05-12T06:09:03.375Z,46.20
2023-05-12T06:10:07.697Z,46.00
2023-05-12T06:11:10.020Z,46.10
2023-05-12T06:12:12.680Z,45.80
2023-05-12T06:13:14.861Z,45.60
2023-05-12T06:14:17.280Z,45.50
2023-05-12T06:15:19.593Z,45.40
2023-05-12T06:16:22.128Z,45.50
2023-05-12T06:17:24.431Z,45.40
2023-05-12T06:18:26.722Z,45.50
2023-05-12T06:19:28.876Z,45.60
2023-05-12T06:20:32.439Z,45.40
2023-05-12T06:21:34.614Z,45.20
2023-05-12T06:22:36.794Z,45.20
2023-05-12T06:23:39.026Z,45.20
2023-05-12T06:24:42.657Z,44.80
2023-05-12T06:25:45.779Z,44.50
2023-05-12T06:26:48.897Z,44.50
2023-05-12T06:27:51.886Z,44.30
2023-05-12T06:28:54.027Z,44.20
2023-05-12T06:29:56.419Z,44.10
2023-05-12T06:30:59.860Z,43.90
2023-05-12T06:32:02.145Z,43.30
2023-05-12T06:33:04.513Z,43.10
2023-05-12T06:34:07.915Z,43.40
2023-05-12T06:35:10.706Z,43.60
2023-05-12T06:36:15.782Z,43.40
2023-05-12T06:37:18.481Z,42.80
2023-05-12T06:38:20.656Z,42.20
2023-05-12T06:39:22.917Z,41.80
2023-05-12T06:40:26.632Z,41.70
2023-05-12T06:41:29.419Z,41.70
2023-05-12T06:42:31.571Z,41.80
2023-05-12T06:43:33.775Z,41.80
2023-05-12T06:44:35.880Z,41.20
2023-05-12T06:45:38.203Z,40.90
2023-05-12T06:46:40.593Z,40.50
2023-05-12T06:47:42.794Z,40.20
2023-05-12T06:48:47.824Z,40.40
2023-05-12T06:49:50.527Z,40.60
2023-05-12T06:50:52.788Z,40.30
2023-05-12T06:51:55.125Z,39.70
2023-05-12T06:52:57.260Z,38.80
2023-05-12T06:53:59.434Z,38.70
2023-05-12T06:55:01.867Z,38.60
2023-05-12T06:56:05.912Z,38.60
2023-05-12T06:57:08.179Z,38.00
2023-05-12T06:58:10.273Z,37.40
2023-05-12T06:59:12.640Z,37.60
2023-05-12T07:00:15.639Z,37.80
2023-05-12T07:01:18.359Z,37.70
2023-05-12T07:02:20.711Z,37.80
2023-05-12T07:03:23.147Z,37.80
2023-05-12T07:04:26.868Z,37.70
2023-05-12T07:05:29.018Z,37.80
2023-05-12T07:06:32.189Z,38.00
2023-05-12T07:07:35.803Z,37.80
2023-05-12T07:08:37.953Z,37.30
2023-05-12T07:09:42.351Z,37.10
2023-05-12T07:10:44.452Z,36.90
2023-05-12T07:11:48.246Z,37.10
2023-05-12T07:12:50.426Z,37.20
2023-05-12T07:13:52.755Z,37.20
2023-05-12T07:14:55.140Z,37.20
2023-05-12T07:15:59.937Z,37.30
2023-05-12T07:17:03.023Z,37.30
2023-05-12T07:18:05.379Z,37.30
2023-05-12T07:19:09.105Z,37.40
2023-05-12T07:20:11.982Z,37.80
2023-05-12T07:21:14.549Z,37.90
2023-05-12T07:22:16.981Z,37.90
2023-05-12T07:23:19.230Z,38.00
2023-05-12T07:24:21.675Z,38.10
2023-05-12T07:25:24.151Z,38.10
2023-05-12T07:26:28.774Z,38.10
2023-05-12T07:27:32.456Z,38.00
2023-05-12T07:28:36.722Z,37.90
2023-05-12T07:29:38.854Z,38.10
2023-05-12T07:30:41.116Z,38.30
2023-05-12T07:31:43.347Z,38.30
2023-05-12T07:32:46.291Z,38.30
2023-05-12T07:33:48.849Z,38.30
2023-05-12T07:34:50.975Z,37.40
2023-05-12T07:35:53.149Z,37.00
2023-05-12T07:36:55.691Z,36.60
2023-05-12T07:37:57.943Z,36.70
2023-05-12T07:39:00.139Z,36.60
2023-05-12T07:40:02.338Z,36.60
2023-05-12T07:41:04.723Z,36.40
2023-05-12T07:42:07.124Z,36.00
2023-05-12T07:43:10.732Z,35.50
2023-05-12T07:44:12.818Z,35.30
2023-05-12T07:45:16.745Z,35.90
2023-05-12T07:46:18.927Z,35.20
2023-05-12T07:47:21.040Z,35.40
2023-05-12T07:48:23.235Z,35.30
2023-05-12T07:49:25.495Z,35.00
2023-05-12T07:50:27.602Z,34.80
2023-05-12T07:51:29.768Z,34.80
2023-05-12T07:52:32.011Z,34.90
2023-05-12T07:53:34.343Z,35.00
2023-05-12T07:54:36.653Z,35.20
2023-05-12T07:55:38.967Z,35.40
2023-05-12T07:56:41.105Z,35.40
2023-05-12T07:57:43.733Z,35.50
2023-05-12T07:58:47.763Z,35.60
2023-05-12T07:59:49.952Z,35.50
2023-05-12T08:01:03.726Z,35.40
2023-05-12T08:02:06.649Z,35.50
2023-05-12T08:03:09.333Z,35.60
2023-05-12T08:04:12.058Z,35.50
2023-05-12T08:05:14.539Z,35.10
2023-05-12T08:06:16.758Z,34.90
2023-05-12T08:07:18.976Z,34.80
2023-05-12T08:08:21.222Z,34.90
2023-05-12T08:09:23.379Z,34.80
2023-05-12T08:10:29.661Z,34.60
2023-05-12T08:11:31.933Z,34.60
2023-05-12T08:12:34.307Z,34.60
2023-05-12T08:13:37.206Z,34.80
2023-05-12T08:14:41.050Z,34.90
2023-05-12T08:15:43.189Z,34.80
2023-05-12T08:16:46.569Z,35.00
2023-05-12T08:17:48.888Z,34.80
2023-05-12T08:18:51.090Z,34.60
2023-05-12T08:19:53.281Z,34.70
2023-05-12T08:20:55.723Z,34.60
2023-05-12T08:21:57.887Z,34.50
2023-05-12T08:23:00.061Z,34.50
2023-05-12T08:24:04.719Z,34.40
2023-05-12T08:25:16.164Z,34.10
2023-05-12T08:26:19.245Z,34.20
2023-05-12T08:27:21.506Z,34.30
2023-05-12T08:28:23.835Z,34.40
2023-05-12T08:29:26.080Z,34.40
2023-05-12T08:30:29.744Z,34.40
2023-05-12T08:31:32.566Z,34.50
2023-05-12T08:32:35.550Z,34.50
2023-05-12T08:33:38.000Z,34.40
2023-05-12T08:34:40.417Z,34.20
2023-05-12T08:35:42.846Z,34.00
2023-05-12T08:36:45.109Z,34.00
2023-05-12T08:37:47.513Z,34.00
2023-05-12T08:38:49.674Z,34.20
2023-05-12T08:39:52.567Z,34.30
2023-05-12T08:41:02.595Z,34.50
2023-05-12T08:42:14.170Z,34.70
2023-05-12T08:43:30.776Z,34.30
2023-05-12T08:44:33.775Z,33.90
2023-05-12T08:45:39.011Z,33.90
2023-05-12T08:46:42.136Z,33.90
2023-05-12T08:47:46.190Z,33.50
2023-05-12T08:48:52.281Z,33.30
2023-05-12T08:50:00.194Z,33.30
2023-05-12T08:51:07.030Z,33.10
2023-05-12T08:52:11.370Z,32.90
2023-05-12T08:53:16.282Z,33.10
2023-05-12T08:54:21.698Z,33.50
2023-05-12T08:55:30.871Z,33.40
2023-05-12T08:57:45.543Z,32.80
2023-05-12T08:58:48.586Z,33.10
2023-05-12T08:59:54.814Z,33.20
2023-05-12T09:01:00.963Z,33.40
2023-05-12T09:02:08.184Z,33.10
2023-05-12T09:03:15.389Z,33.10
2023-05-12T09:04:18.277Z,33.10
2023-05-12T09:05:21.101Z,32.80
2023-05-12T09:06:23.980Z,32.80
2023-05-12T09:07:27.338Z,33.00
2023-05-12T09:08:33.126Z,32.60
2023-05-12T09:09:50.051Z,32.40
2023-05-12T09:10:55.070Z,32.40
2023-05-12T09:11:59.168Z,32.40
2023-05-12T09:13:04.490Z,32.50
2023-05-12T09:14:09.665Z,32.60
2023-05-12T09:15:18.977Z,32.90
2023-05-12T09:16:27.400Z,33.10
2023-05-12T09:17:29.549Z,32.90
2023-05-12T09:18:46.058Z,32.50
2023-05-12T09:19:48.276Z,32.30
2023-05-12T09:20:50.477Z,32.30
2023-05-12T09:21:53.157Z,32.20
2023-05-12T09:22:58.223Z,33.00
2023-05-12T09:24:03.400Z,32.70
2023-05-12T09:25:17.110Z,32.30
2023-05-12T09:26:19.584Z,32.40
2023-05-12T09:27:25.990Z,32.90
2023-05-12T09:28:36.115Z,33.20
2023-05-12T09:29:58.502Z,33.30
2023-05-12T09:31:01.054Z,32.30
2023-05-12T09:32:04.828Z,32.30
2023-05-12T09:33:08.984Z,32.60
2023-05-12T09:34:11.243Z,32.80
2023-05-12T09:35:13.600Z,32.80
2023-05-12T09:36:18.397Z,32.40
2023-05-12T09:37:20.885Z,32.30
2023-05-12T09:38:23.058Z,32.30
2023-05-12T09:39:25.763Z,32.20
2023-05-12T09:40:30.163Z,32.20
2023-05-12T09:41:35.135Z,32.00
2023-05-12T09:42:37.404Z,32.40
2023-05-12T09:43:46.073Z,31.80
2023-05-12T09:44:48.556Z,31.30
2023-05-12T09:45:51.758Z,31.30
2023-05-12T09:46:54.025Z,31.20
2023-05-12T09:48:02.852Z,31.20
2023-05-12T09:49:05.098Z,31.40
2023-05-12T09:50:10.302Z,31.60
2023-05-12T09:51:12.778Z,31.70
2023-05-12T09:52:15.081Z,31.20
2023-05-12T09:53:18.313Z,31.40
2023-05-12T09:54:27.606Z,31.60
2023-05-12T09:55:29.745Z,31.40
2023-05-12T09:56:32.768Z,31.60
2023-05-12T09:57:39.875Z,31.90
2023-05-12T09:58:46.474Z,31.70
2023-05-12T09:59:49.673Z,31.40
2023-05-12T10:02:00.962Z,31.20
2023-05-12T10:03:09.416Z,31.00
2023-05-12T10:04:13.058Z,30.70
2023-05-12T10:05:17.856Z,30.20
2023-05-12T10:06:23.118Z,30.00
2023-05-12T10:07:28.262Z,30.10
2023-05-12T10:08:34.237Z,30.20
2023-05-12T10:09:39.479Z,30.60
2023-05-12T10:10:43.296Z,30.50
2023-05-12T10:11:46.872Z,30.40
2023-05-12T10:12:49.563Z,30.20
2023-05-12T10:13:53.316Z,30.30
2023-05-12T10:14:56.520Z,30.40
2023-05-12T10:16:00.247Z,30.40
2023-05-12T10:17:02.734Z,30.30
2023-05-12T10:18:08.028Z,30.40
2023-05-12T10:19:11.250Z,30.50
2023-05-12T10:20:15.295Z,30.30
2023-05-12T10:21:17.516Z,30.50
2023-05-12T10:22:20.518Z,30.10
2023-05-12T10:23:23.511Z,30.00
2023-05-12T10:24:27.491Z,30.10
2023-05-12T10:25:30.758Z,30.10
2023-05-12T10:26:35.015Z,30.70
2023-05-12T10:27:38.039Z,30.50
2023-05-12T10:28:41.167Z,30.00
2023-05-12T10:29:44.014Z,29.90
2023-05-12T10:30:48.491Z,30.00
2023-05-12T10:31:51.168Z,30.20
2023-05-12T10:32:53.686Z,29.90
2023-05-12T10:34:00.912Z,29.90
2023-05-12T10:35:10.244Z,29.90
2023-05-12T10:36:19.518Z,29.90
2023-05-12T10:37:23.565Z,29.90
2023-05-12T10:38:25.885Z,29.90
2023-05-12T10:39:33.062Z,29.70
2023-05-12T10:40:35.556Z,29.90
2023-05-12T10:41:37.872Z,29.70
2023-05-12T10:42:42.598Z,29.90
2023-05-12T10:43:49.696Z,30.60
2023-05-12T10:44:52.843Z,30.10
2023-05-12T10:46:08.849Z,30.00
2023-05-12T10:47:16.730Z,30.00
2023-05-12T10:48:18.963Z,30.00
2023-05-12T10:49:33.219Z,29.80
2023-05-12T10:50:35.791Z,29.60
2023-05-12T10:51:51.297Z,29.70
2023-05-12T10:52:54.305Z,29.50
2023-05-12T10:54:01.156Z,29.50
2023-05-12T10:55:05.007Z,29.90
2023-05-12T10:56:09.055Z,29.60
2023-05-12T10:57:18.407Z,29.40
2023-05-12T10:58:21.902Z,29.60
2023-05-12T10:59:25.431Z,29.60
2023-05-12T11:00:28.951Z,29.50
2023-05-12T11:01:52.392Z,29.40
2023-05-12T11:03:10.188Z,29.00
2023-05-12T11:04:19.202Z,29.10
2023-05-12T11:05:35.087Z,28.90
2023-05-12T11:06:58.006Z,29.10
2023-05-12T11:08:11.576Z,29.50
2023-05-12T11:09:19.674Z,29.20
2023-05-12T11:10:24.363Z,28.60
2023-05-12T11:11:29.405Z,28.70
2023-05-12T11:12:33.823Z,28.70
2023-05-12T11:13:37.912Z,28.80
2023-05-12T11:14:42.209Z,28.70
2023-05-12T11:15:44.857Z,29.00
2023-05-12T11:16:47.209Z,28.40
2023-05-12T11:17:49.648Z,28.20
2023-05-12T11:19:01.851Z,28.40
2023-05-12T11:20:04.622Z,29.00
2023-05-12T11:21:12.354Z,29.20
2023-05-12T11:22:18.485Z,29.30
2023-05-12T11:23:25.556Z,28.90
2023-05-12T11:24:27.850Z,28.80
2023-05-12T11:25:30.639Z,28.80
2023-05-12T11:26:34.505Z,28.90
2023-05-12T11:27:42.383Z,28.30
2023-05-12T11:28:44.826Z,28.30
2023-05-12T11:29:59.246Z,29.10
2023-05-12T11:31:04.526Z,28.80
2023-05-12T11:32:07.534Z,28.80
2023-05-12T11:33:13.889Z,28.90
2023-05-12T11:34:17.091Z,28.20
2023-05-12T11:35:20.078Z,28.10
2023-05-12T11:36:23.950Z,28.30
2023-05-12T11:37:26.204Z,28.20
2023-05-12T11:38:28.954Z,28.30
2023-05-12T11:39:34.182Z,28.20
2023-05-12T11:40:41.342Z,28.10
2023-05-12T11:41:43.860Z,28.00
2023-05-12T11:42:52.190Z,28.20
2023-05-12T11:43:54.414Z,28.10
2023-05-12T11:44:56.635Z,27.70
2023-05-12T11:45:59.934Z,27.70
2023-05-12T11:47:03.464Z,28.30
2023-05-12T11:48:07.834Z,28.40
2023-05-12T11:49:14.577Z,28.20
2023-05-12T11:50:24.278Z,28.20
2023-05-12T11:51:27.879Z,27.90
2023-05-12T11:52:30.047Z,27.90
2023-05-12T11:53:33.090Z,28.20
2023-05-12T11:54:35.283Z,28.30
2023-05-12T11:55:37.535Z,27.90
2023-05-12T11:56:47.301Z,27.90
2023-05-12T11:58:00.210Z,27.90
2023-05-12T11:59:02.697Z,27.70
2023-05-12T12:00:10.224Z,27.70
2023-05-12T12:01:12.797Z,28.30
2023-05-12T12:02:21.703Z,28.10
2023-05-12T12:03:25.316Z,27.90
2023-05-12T12:04:35.374Z,27.60
2023-05-12T12:05:38.299Z,28.10
2023-05-12T12:06:46.100Z,28.20
2023-05-12T12:07:51.551Z,28.10
2023-05-12T12:08:55.371Z,28.10
2023-05-12T12:09:57.824Z,28.20
2023-05-12T12:11:01.986Z,28.60
2023-05-12T12:12:07.743Z,28.50
2023-05-12T12:13:09.947Z,28.40
2023-05-12T12:14:12.199Z,28.30
2023-05-12T12:15:14.342Z,28.60
2023-05-12T12:16:16.768Z,28.80
2023-05-12T12:17:19.160Z,29.00
2023-05-12T12:18:21.943Z,28.60
2023-05-12T12:19:24.892Z,28.60
2023-05-12T12:20:27.309Z,28.10
2023-05-12T12:21:29.485Z,28.10
2023-05-12T12:22:34.735Z,28.10
2023-05-12T12:23:47.647Z,28.10
2023-05-12T12:24:53.761Z,28.20
2023-05-12T12:25:55.903Z,27.90
2023-05-12T12:26:58.079Z,27.90
2023-05-12T12:28:00.168Z,27.90
2023-05-12T12:29:02.366Z,27.80
2023-05-12T12:30:05.284Z,27.40
2023-05-12T12:31:10.666Z,27.40
2023-05-12T12:32:12.928Z,27.00
2023-05-12T12:33:20.203Z,27.00
2023-05-12T12:34:22.821Z,27.40
2023-05-12T12:35:25.292Z,27.60
2023-05-12T12:36:27.434Z,27.10
2023-05-12T12:37:29.854Z,26.20
2023-05-12T12:38:35.694Z,25.70
2023-05-12T12:39:37.808Z,25.10
2023-05-12T12:40:39.920Z,24.90
2023-05-12T12:41:43.738Z,24.80
2023-05-12T12:42:48.940Z,24.70
2023-05-12T12:43:53.766Z,24.20
2023-05-12T12:44:56.004Z,24.10
2023-05-12T12:45:58.375Z,23.80
2023-05-12T12:47:00.612Z,23.60
2023-05-12T12:48:06.847Z,23.30
2023-05-12T12:49:11.936Z,23.20
2023-05-12T12:50:17.007Z,23.50
2023-05-12T12:51:19.289Z,23.70
2023-05-12T12:52:21.413Z,23.60
2023-05-12T12:53:26.973Z,23.50
2023-05-12T12:54:30.534Z,23.40
2023-05-12T12:55:32.832Z,23.10
2023-05-12T12:56:35.169Z,23.00
2023-05-12T12:57:37.341Z,23.50
2023-05-12T12:58:39.767Z,23.20
2023-05-12T12:59:41.840Z,23.00
2023-05-12T13:00:44.138Z,22.90
2023-05-12T13:01:46.438Z,22.90
2023-05-12T13:02:49.764Z,22.80
2023-05-12T13:03:52.149Z,22.90
2023-05-12T13:04:54.502Z,22.80
2023-05-12T13:05:56.660Z,23.10
2023-05-12T13:06:58.863Z,23.20
2023-05-12T13:08:01.104Z,23.30
2023-05-12T13:09:04.104Z,23.60
2023-05-12T13:10:09.409Z,23.90
2023-05-12T13:11:11.830Z,24.10
2023-05-12T13:12:13.985Z,24.30
2023-05-12T13:13:16.172Z,24.10
2023-05-12T13:14:18.293Z,24.30
2023-05-12T13:15:20.838Z,24.30
2023-05-12T13:16:23.306Z,24.60
2023-05-12T13:17:25.552Z,24.90
2023-05-12T13:18:27.894Z,25.10
2023-05-12T13:19:30.307Z,25.10
2023-05-12T13:20:32.619Z,25.00
2023-05-12T13:21:35.095Z,24.60
2023-05-12T13:22:37.348Z,24.50
2023-05-12T13:23:39.439Z,24.10
2023-05-12T13:24:41.567Z,23.90
2023-05-12T13:25:46.440Z,23.60
2023-05-12T13:26:48.741Z,23.40
2023-05-12T13:27:52.395Z,23.80
2023-05-12T13:28:54.577Z,23.20
2023-05-12T13:29:56.971Z,23.10
2023-05-12T13:30:59.178Z,23.00
2023-05-12T13:32:01.592Z,23.30
2023-05-12T13:33:05.861Z,22.60
2023-05-12T13:34:08.509Z,22.60
2023-05-12T13:35:10.794Z,22.50
2023-05-12T13:36:13.356Z,22.40
2023-05-12T13:37:15.798Z,22.50
2023-05-12T13:38:19.148Z,22.30
2023-05-12T13:39:21.371Z,22.10
2023-05-12T13:40:23.674Z,22.00
2023-05-12T13:41:27.192Z,22.30